sensor_id;sensor_type;location;lat;lon;timestamp;P1;durP1;ratioP1;P2;durP2;ratioP2
47896;SDS011;39629;51.400;5.494;2023-04-25T00:00:33;13.90;;;3.80;;
47896;SDS011;39629;51.400;5.494;2023-04-25T00:05:35;10.98;;;3.47;;
47896;SDS011;39629;51.400;5.494;2023-04-25T00:10:39;14.10;;;3.28;;
47896;SDS011;39629;51.400;5.494;2023-04-25T00:15:40;5.60;;;2.63;;
47896;SDS011;39629;51.400;5.494;2023-04-25T00:20:42;8.05;;;3.10;;
47896;SDS011;39629;51.400;5.494;2023-04-25T00:25:48;11.63;;;3.70;;
47896;SDS011;39629;51.400;5.494;2023-04-25T00:35:52;12.52;;;2.97;;
47896;SDS011;39629;51.400;5.494;2023-04-25T00:40:55;11.77;;;4.22;;
47896;SDS011;39629;51.400;5.494;2023-04-25T00:45:57;10.15;;;3.05;;
47896;SDS011;39629;51.400;5.494;2023-04-25T00:51:01;12.70;;;3.13;;
47896;SDS011;39629;51.400;5.494;2023-04-25T00:56:04;9.40;;;2.85;;
47896;SDS011;39629;51.400;5.494;2023-04-25T01:01:06;9.80;;;2.92;;
47896;SDS011;39629;51.400;5.494;2023-04-25T01:06:08;8.18;;;3.05;;
47896;SDS011;39629;51.400;5.494;2023-04-25T01:11:12;8.45;;;2.38;;
47896;SDS011;39629;51.400;5.494;2023-04-25T01:16:13;9.68;;;2.70;;
47896;SDS011;39629;51.400;5.494;2023-04-25T01:21:17;8.20;;;2.75;;
47896;SDS011;39629;51.400;5.494;2023-04-25T01:26:21;7.03;;;2.78;;
47896;SDS011;39629;51.400;5.494;2023-04-25T01:31:24;7.20;;;2.45;;
47896;SDS011;39629;51.400;5.494;2023-04-25T01:36:27;9.77;;;2.67;;
47896;SDS011;39629;51.400;5.494;2023-04-25T01:41:29;7.50;;;2.97;;
47896;SDS011;39629;51.400;5.494;2023-04-25T01:46:30;12.30;;;2.90;;
47896;SDS011;39629;51.400;5.494;2023-04-25T01:51:34;6.75;;;2.67;;
47896;SDS011;39629;51.400;5.494;2023-04-25T01:56:36;9.73;;;3.17;;
47896;SDS011;39629;51.400;5.494;2023-04-25T02:01:40;5.45;;;2.42;;
47896;SDS011;39629;51.400;5.494;2023-04-25T02:06:52;9.07;;;2.28;;
47896;SDS011;39629;51.400;5.494;2023-04-25T02:11:55;10.95;;;2.45;;
47896;SDS011;39629;51.400;5.494;2023-04-25T02:17:26;10.30;;;3.05;;
47896;SDS011;39629;51.400;5.494;2023-04-25T02:22:29;12.95;;;2.75;;
47896;SDS011;39629;51.400;5.494;2023-04-25T02:27:31;8.35;;;2.70;;
47896;SDS011;39629;51.400;5.494;2023-04-25T02:32:32;14.10;;;3.28;;
47896;SDS011;39629;51.400;5.494;2023-04-25T02:37:38;7.90;;;2.53;;
47896;SDS011;39629;51.400;5.494;2023-04-25T02:42:40;12.10;;;2.85;;
47896;SDS011;39629;51.400;5.494;2023-04-25T02:47:42;10.35;;;3.30;;
47896;SDS011;39629;51.400;5.494;2023-04-25T02:52:46;8.02;;;2.95;;
47896;SDS011;39629;51.400;5.494;2023-04-25T02:57:56;14.40;;;3.00;;
47896;SDS011;39629;51.400;5.494;2023-04-25T03:03:10;10.43;;;3.10;;
47896;SDS011;39629;51.400;5.494;2023-04-25T03:08:13;10.85;;;2.85;;
47896;SDS011;39629;51.400;5.494;2023-04-25T03:13:15;9.25;;;2.85;;
47896;SDS011;39629;51.400;5.494;2023-04-25T03:18:17;6.93;;;2.70;;
47896;SDS011;39629;51.400;5.494;2023-04-25T03:23:20;9.05;;;2.90;;
47896;SDS011;39629;51.400;5.494;2023-04-25T03:28:22;11.80;;;2.90;;
47896;SDS011;39629;51.400;5.494;2023-04-25T03:33:24;12.57;;;3.65;;
47896;SDS011;39629;51.400;5.494;2023-04-25T03:38:27;13.20;;;3.20;;
47896;SDS011;39629;51.400;5.494;2023-04-25T03:43:29;9.55;;;2.92;;
47896;SDS011;39629;51.400;5.494;2023-04-25T03:48:37;12.20;;;3.28;;
47896;SDS011;39629;51.400;5.494;2023-04-25T03:53:40;7.93;;;2.78;;
47896;SDS011;39629;51.400;5.494;2023-04-25T03:58:55;8.25;;;2.33;;
47896;SDS011;39629;51.400;5.494;2023-04-25T04:03:59;11.00;;;2.60;;
47896;SDS011;39629;51.400;5.494;2023-04-25T04:09:02;13.75;;;3.10;;
47896;SDS011;39629;51.400;5.494;2023-04-25T04:14:07;11.38;;;3.10;;
47896;SDS011;39629;51.400;5.494;2023-04-25T04:19:15;9.73;;;2.60;;
47896;SDS011;39629;51.400;5.494;2023-04-25T04:24:29;10.60;;;2.60;;
47896;SDS011;39629;51.400;5.494;2023-04-25T04:29:37;9.68;;;3.15;;
47896;SDS011;39629;51.400;5.494;2023-04-25T04:35:05;11.10;;;3.22;;
47896;SDS011;39629;51.400;5.494;2023-04-25T04:40:11;13.23;;;2.92;;
47896;SDS011;39629;51.400;5.494;2023-04-25T04:45:36;11.27;;;4.10;;
47896;SDS011;39629;51.400;5.494;2023-04-25T04:50:44;15.38;;;3.45;;
47896;SDS011;39629;51.400;5.494;2023-04-25T04:56:00;14.23;;;3.60;;
47896;SDS011;39629;51.400;5.494;2023-04-25T05:01:09;13.80;;;3.40;;
47896;SDS011;39629;51.400;5.494;2023-04-25T05:06:30;13.77;;;3.35;;
47896;SDS011;39629;51.400;5.494;2023-04-25T05:11:52;12.10;;;3.25;;
47896;SDS011;39629;51.400;5.494;2023-04-25T05:17:12;9.75;;;2.95;;
47896;SDS011;39629;51.400;5.494;2023-04-25T05:22:33;11.00;;;3.53;;
47896;SDS011;39629;51.400;5.494;2023-04-25T05:27:47;10.98;;;2.72;;
47896;SDS011;39629;51.400;5.494;2023-04-25T05:33:07;13.73;;;3.38;;
47896;SDS011;39629;51.400;5.494;2023-04-25T05:38:09;10.95;;;3.05;;
47896;SDS011;39629;51.400;5.494;2023-04-25T05:43:41;10.82;;;2.65;;
47896;SDS011;39629;51.400;5.494;2023-04-25T05:49:12;13.82;;;2.95;;
47896;SDS011;39629;51.400;5.494;2023-04-25T05:54:38;9.07;;;2.90;;
47896;SDS011;39629;51.400;5.494;2023-04-25T05:59:41;13.10;;;2.92;;
47896;SDS011;39629;51.400;5.494;2023-04-25T06:04:43;7.82;;;2.60;;
47896;SDS011;39629;51.400;5.494;2023-04-25T06:09:44;12.85;;;2.78;;
47896;SDS011;39629;51.400;5.494;2023-04-25T06:14:48;11.13;;;2.90;;
47896;SDS011;39629;51.400;5.494;2023-04-25T06:19:49;12.98;;;2.25;;
47896;SDS011;39629;51.400;5.494;2023-04-25T06:24:51;9.52;;;3.08;;
47896;SDS011;39629;51.400;5.494;2023-04-25T06:29:54;11.85;;;2.90;;
47896;SDS011;39629;51.400;5.494;2023-04-25T06:34:55;9.32;;;2.63;;
47896;SDS011;39629;51.400;5.494;2023-04-25T06:39:58;12.68;;;3.28;;
47896;SDS011;39629;51.400;5.494;2023-04-25T06:45:01;10.32;;;3.10;;
47896;SDS011;39629;51.400;5.494;2023-04-25T06:55:08;9.27;;;2.55;;
47896;SDS011;39629;51.400;5.494;2023-04-25T07:00:30;11.07;;;2.58;;
47896;SDS011;39629;51.400;5.494;2023-04-25T07:05:33;7.53;;;1.80;;
47896;SDS011;39629;51.400;5.494;2023-04-25T07:10:35;10.00;;;1.90;;
47896;SDS011;39629;51.400;5.494;2023-04-25T07:15:38;5.25;;;1.48;;
47896;SDS011;39629;51.400;5.494;2023-04-25T07:20:41;5.03;;;1.30;;
47896;SDS011;39629;51.400;5.494;2023-04-25T07:25:42;7.32;;;1.30;;
47896;SDS011;39629;51.400;5.494;2023-04-25T07:30:47;9.13;;;1.60;;
47896;SDS011;39629;51.400;5.494;2023-04-25T07:35:49;7.63;;;1.52;;
47896;SDS011;39629;51.400;5.494;2023-04-25T07:40:51;5.10;;;0.93;;
47896;SDS011;39629;51.400;5.494;2023-04-25T07:45:55;6.43;;;0.98;;
47896;SDS011;39629;51.400;5.494;2023-04-25T07:50:58;5.00;;;1.17;;
47896;SDS011;39629;51.400;5.494;2023-04-25T07:55:59;3.55;;;0.90;;
47896;SDS011;39629;51.400;5.494;2023-04-25T08:01:07;4.72;;;0.88;;
47896;SDS011;39629;51.400;5.494;2023-04-25T08:06:08;5.13;;;1.00;;
47896;SDS011;39629;51.400;5.494;2023-04-25T08:11:19;3.30;;;0.85;;
47896;SDS011;39629;51.400;5.494;2023-04-25T08:16:22;5.30;;;1.00;;
47896;SDS011;39629;51.400;5.494;2023-04-25T08:26:30;5.30;;;1.10;;
47896;SDS011;39629;51.400;5.494;2023-04-25T08:31:34;4.15;;;1.08;;
47896;SDS011;39629;51.400;5.494;2023-04-25T08:36:38;4.10;;;0.80;;
47896;SDS011;39629;51.400;5.494;2023-04-25T08:41:50;3.83;;;0.80;;
47896;SDS011;39629;51.400;5.494;2023-04-25T08:46:54;3.78;;;0.98;;
47896;SDS011;39629;51.400;5.494;2023-04-25T08:52:02;8.65;;;1.30;;
47896;SDS011;39629;51.400;5.494;2023-04-25T08:57:06;5.78;;;0.90;;
47896;SDS011;39629;51.400;5.494;2023-04-25T09:02:10;7.53;;;1.45;;
47896;SDS011;39629;51.400;5.494;2023-04-25T09:07:16;4.15;;;1.25;;
47896;SDS011;39629;51.400;5.494;2023-04-25T09:12:21;3.92;;;1.10;;
47896;SDS011;39629;51.400;5.494;2023-04-25T09:17:25;7.05;;;1.10;;
47896;SDS011;39629;51.400;5.494;2023-04-25T09:22:28;4.53;;;1.02;;
47896;SDS011;39629;51.400;5.494;2023-04-25T09:27:30;3.53;;;0.75;;
47896;SDS011;39629;51.400;5.494;2023-04-25T09:32:47;3.25;;;1.08;;
47896;SDS011;39629;51.400;5.494;2023-04-25T09:37:50;5.50;;;0.90;;
47896;SDS011;39629;51.400;5.494;2023-04-25T09:43:10;4.18;;;0.80;;
47896;SDS011;39629;51.400;5.494;2023-04-25T09:48:21;3.88;;;0.75;;
47896;SDS011;39629;51.400;5.494;2023-04-25T09:53:26;3.92;;;0.70;;
47896;SDS011;39629;51.400;5.494;2023-04-25T09:58:42;3.50;;;0.80;;
47896;SDS011;39629;51.400;5.494;2023-04-25T10:03:45;3.83;;;0.73;;
47896;SDS011;39629;51.400;5.494;2023-04-25T10:09:10;3.35;;;0.70;;
47896;SDS011;39629;51.400;5.494;2023-04-25T10:14:14;4.03;;;0.70;;
47896;SDS011;39629;51.400;5.494;2023-04-25T10:19:18;4.63;;;0.90;;
47896;SDS011;39629;51.400;5.494;2023-04-25T10:24:20;4.10;;;0.90;;
47896;SDS011;39629;51.400;5.494;2023-04-25T10:29:22;3.80;;;0.90;;
47896;SDS011;39629;51.400;5.494;2023-04-25T10:34:38;2.33;;;0.80;;
47896;SDS011;39629;51.400;5.494;2023-04-25T10:39:41;4.88;;;0.90;;
47896;SDS011;39629;51.400;5.494;2023-04-25T10:44:47;3.08;;;0.90;;
47896;SDS011;39629;51.400;5.494;2023-04-25T10:50:06;3.85;;;0.98;;
47896;SDS011;39629;51.400;5.494;2023-04-25T10:55:09;2.78;;;0.70;;
47896;SDS011;39629;51.400;5.494;2023-04-25T11:00:12;6.80;;;1.33;;
47896;SDS011;39629;51.400;5.494;2023-04-25T11:05:19;4.38;;;0.90;;
47896;SDS011;39629;51.400;5.494;2023-04-25T11:10:24;3.88;;;0.88;;
47896;SDS011;39629;51.400;5.494;2023-04-25T11:15:26;2.20;;;0.80;;
47896;SDS011;39629;51.400;5.494;2023-04-25T11:20:30;4.97;;;0.80;;
47896;SDS011;39629;51.400;5.494;2023-04-25T11:25:31;2.75;;;0.80;;
47896;SDS011;39629;51.400;5.494;2023-04-25T11:30:33;3.72;;;0.80;;
47896;SDS011;39629;51.400;5.494;2023-04-25T11:35:36;2.58;;;0.70;;
47896;SDS011;39629;51.400;5.494;2023-04-25T11:40:38;4.22;;;0.80;;
47896;SDS011;39629;51.400;5.494;2023-04-25T11:45:39;3.55;;;0.90;;
47896;SDS011;39629;51.400;5.494;2023-04-25T11:50:43;3.85;;;0.75;;
47896;SDS011;39629;51.400;5.494;2023-04-25T11:55:44;2.47;;;0.50;;
47896;SDS011;39629;51.400;5.494;2023-04-25T12:00:46;6.70;;;0.80;;
47896;SDS011;39629;51.400;5.494;2023-04-25T12:05:49;4.47;;;0.80;;
47896;SDS011;39629;51.400;5.494;2023-04-25T12:10:51;2.45;;;0.63;;
47896;SDS011;39629;51.400;5.494;2023-04-25T12:15:54;5.90;;;0.85;;
47896;SDS011;39629;51.400;5.494;2023-04-25T12:20:58;2.42;;;0.50;;
47896;SDS011;39629;51.400;5.494;2023-04-25T12:26:00;5.13;;;0.63;;
47896;SDS011;39629;51.400;5.494;2023-04-25T12:31:03;3.95;;;0.70;;
47896;SDS011;39629;51.400;5.494;2023-04-25T12:36:07;3.83;;;1.05;;
47896;SDS011;39629;51.400;5.494;2023-04-25T12:41:11;3.75;;;0.70;;
47896;SDS011;39629;51.400;5.494;2023-04-25T12:46:12;2.28;;;0.50;;
47896;SDS011;39629;51.400;5.494;2023-04-25T12:51:15;2.33;;;0.50;;
47896;SDS011;39629;51.400;5.494;2023-04-25T12:56:17;1.88;;;0.43;;
47896;SDS011;39629;51.400;5.494;2023-04-25T13:01:19;1.60;;;0.50;;
47896;SDS011;39629;51.400;5.494;2023-04-25T13:06:22;2.08;;;0.40;;
47896;SDS011;39629;51.400;5.494;2023-04-25T13:11:23;3.40;;;0.68;;
47896;SDS011;39629;51.400;5.494;2023-04-25T13:16:25;2.55;;;0.65;;
47896;SDS011;39629;51.400;5.494;2023-04-25T13:21:29;3.97;;;0.57;;
47896;SDS011;39629;51.400;5.494;2023-04-25T13:26:32;3.22;;;0.52;;
47896;SDS011;39629;51.400;5.494;2023-04-25T13:31:33;4.45;;;0.68;;
47896;SDS011;39629;51.400;5.494;2023-04-25T13:36:36;3.45;;;0.70;;
47896;SDS011;39629;51.400;5.494;2023-04-25T13:41:38;2.85;;;0.60;;
47896;SDS011;39629;51.400;5.494;2023-04-25T13:46:39;3.60;;;0.82;;
47896;SDS011;39629;51.400;5.494;2023-04-25T13:51:42;3.72;;;0.50;;
47896;SDS011;39629;51.400;5.494;2023-04-25T13:56:43;3.38;;;0.85;;
47896;SDS011;39629;51.400;5.494;2023-04-25T14:01:45;1.77;;;0.40;;
47896;SDS011;39629;51.400;5.494;2023-04-25T14:06:48;3.88;;;0.70;;
47896;SDS011;39629;51.400;5.494;2023-04-25T14:11:50;2.08;;;0.47;;
47896;SDS011;39629;51.400;5.494;2023-04-25T14:16:51;3.03;;;0.63;;
47896;SDS011;39629;51.400;5.494;2023-04-25T14:21:55;2.65;;;0.60;;
47896;SDS011;39629;51.400;5.494;2023-04-25T14:26:57;3.42;;;0.57;;
47896;SDS011;39629;51.400;5.494;2023-04-25T14:31:58;2.80;;;0.80;;
47896;SDS011;39629;51.400;5.494;2023-04-25T14:37:01;1.98;;;0.50;;
47896;SDS011;39629;51.400;5.494;2023-04-25T14:42:03;2.47;;;0.52;;
47896;SDS011;39629;51.400;5.494;2023-04-25T14:47:05;2.78;;;0.65;;
47896;SDS011;39629;51.400;5.494;2023-04-25T14:52:08;4.40;;;0.70;;
47896;SDS011;39629;51.400;5.494;2023-04-25T14:57:09;2.97;;;0.95;;
47896;SDS011;39629;51.400;5.494;2023-04-25T15:02:11;2.00;;;0.70;;
47896;SDS011;39629;51.400;5.494;2023-04-25T15:07:14;2.67;;;0.70;;
47896;SDS011;39629;51.400;5.494;2023-04-25T15:12:16;3.03;;;0.60;;
47896;SDS011;39629;51.400;5.494;2023-04-25T15:17:17;4.43;;;0.75;;
47896;SDS011;39629;51.400;5.494;2023-04-25T15:22:20;3.17;;;0.70;;
47896;SDS011;39629;51.400;5.494;2023-04-25T15:27:22;3.22;;;1.15;;
47896;SDS011;39629;51.400;5.494;2023-04-25T15:32:24;2.90;;;0.68;;
47896;SDS011;39629;51.400;5.494;2023-04-25T15:37:26;2.28;;;0.50;;
47896;SDS011;39629;51.400;5.494;2023-04-25T15:42:28;3.00;;;0.70;;
47896;SDS011;39629;51.400;5.494;2023-04-25T15:47:30;3.58;;;0.70;;
47896;SDS011;39629;51.400;5.494;2023-04-25T15:52:33;3.90;;;0.63;;
47896;SDS011;39629;51.400;5.494;2023-04-25T15:57:35;3.47;;;0.70;;
47896;SDS011;39629;51.400;5.494;2023-04-25T16:02:37;2.47;;;0.70;;
47896;SDS011;39629;51.400;5.494;2023-04-25T16:07:41;3.58;;;0.70;;
47896;SDS011;39629;51.400;5.494;2023-04-25T16:12:44;4.22;;;0.93;;
47896;SDS011;39629;51.400;5.494;2023-04-25T16:17:47;3.75;;;0.73;;
47896;SDS011;39629;51.400;5.494;2023-04-25T16:22:49;2.97;;;0.70;;
47896;SDS011;39629;51.400;5.494;2023-04-25T16:27:51;3.47;;;0.80;;
47896;SDS011;39629;51.400;5.494;2023-04-25T16:32:53;3.28;;;0.85;;
47896;SDS011;39629;51.400;5.494;2023-04-25T16:37:57;2.63;;;0.60;;
47896;SDS011;39629;51.400;5.494;2023-04-25T16:42:59;2.78;;;0.90;;
47896;SDS011;39629;51.400;5.494;2023-04-25T16:48:01;5.40;;;0.93;;
47896;SDS011;39629;51.400;5.494;2023-04-25T16:53:04;3.83;;;0.77;;
47896;SDS011;39629;51.400;5.494;2023-04-25T16:58:05;4.25;;;0.80;;
47896;SDS011;39629;51.400;5.494;2023-04-25T17:03:07;3.25;;;1.05;;
47896;SDS011;39629;51.400;5.494;2023-04-25T17:08:10;2.72;;;0.77;;
47896;SDS011;39629;51.400;5.494;2023-04-25T17:13:12;4.13;;;0.93;;
47896;SDS011;39629;51.400;5.494;2023-04-25T17:18:13;4.30;;;0.70;;
47896;SDS011;39629;51.400;5.494;2023-04-25T17:23:16;2.90;;;0.88;;
47896;SDS011;39629;51.400;5.494;2023-04-25T17:28:18;2.58;;;0.73;;
47896;SDS011;39629;51.400;5.494;2023-04-25T17:33:20;2.35;;;0.73;;
47896;SDS011;39629;51.400;5.494;2023-04-25T17:38:27;3.17;;;0.88;;
47896;SDS011;39629;51.400;5.494;2023-04-25T17:43:29;4.30;;;0.88;;
47896;SDS011;39629;51.400;5.494;2023-04-25T17:48:32;5.50;;;1.00;;
47896;SDS011;39629;51.400;5.494;2023-04-25T17:53:34;4.35;;;1.70;;
47896;SDS011;39629;51.400;5.494;2023-04-25T17:58:36;3.05;;;0.77;;
47896;SDS011;39629;51.400;5.494;2023-04-25T18:03:38;2.75;;;0.70;;
47896;SDS011;39629;51.400;5.494;2023-04-25T18:08:45;2.25;;;0.80;;
47896;SDS011;39629;51.400;5.494;2023-04-25T18:13:47;1.83;;;0.70;;
47896;SDS011;39629;51.400;5.494;2023-04-25T18:18:48;3.67;;;0.90;;
47896;SDS011;39629;51.400;5.494;2023-04-25T18:23:53;2.38;;;0.80;;
47896;SDS011;39629;51.400;5.494;2023-04-25T18:28:54;4.00;;;0.95;;
47896;SDS011;39629;51.400;5.494;2023-04-25T18:33:56;2.72;;;0.80;;
47896;SDS011;39629;51.400;5.494;2023-04-25T18:38:59;3.08;;;0.90;;
47896;SDS011;39629;51.400;5.494;2023-04-25T18:44:02;5.33;;;1.00;;
47896;SDS011;39629;51.400;5.494;2023-04-25T18:49:04;4.40;;;1.00;;
47896;SDS011;39629;51.400;5.494;2023-04-25T18:54:07;2.65;;;1.00;;
47896;SDS011;39629;51.400;5.494;2023-04-25T18:59:09;4.40;;;1.17;;
47896;SDS011;39629;51.400;5.494;2023-04-25T19:04:11;2.67;;;0.70;;
47896;SDS011;39629;51.400;5.494;2023-04-25T19:09:14;2.53;;;0.80;;
47896;SDS011;39629;51.400;5.494;2023-04-25T19:14:15;3.00;;;0.75;;
47896;SDS011;39629;51.400;5.494;2023-04-25T19:19:17;6.22;;;1.13;;
47896;SDS011;39629;51.400;5.494;2023-04-25T19:24:20;5.50;;;0.88;;
47896;SDS011;39629;51.400;5.494;2023-04-25T19:29:21;3.42;;;0.85;;
47896;SDS011;39629;51.400;5.494;2023-04-25T19:34:23;4.05;;;1.10;;
47896;SDS011;39629;51.400;5.494;2023-04-25T19:39:26;4.88;;;0.98;;
47896;SDS011;39629;51.400;5.494;2023-04-25T19:44:28;4.45;;;1.00;;
47896;SDS011;39629;51.400;5.494;2023-04-25T19:49:30;5.30;;;1.40;;
47896;SDS011;39629;51.400;5.494;2023-04-25T19:54:33;5.30;;;1.17;;
47896;SDS011;39629;51.400;5.494;2023-04-25T19:59:34;3.10;;;1.13;;
47896;SDS011;39629;51.400;5.494;2023-04-25T20:04:36;5.45;;;1.13;;
47896;SDS011;39629;51.400;5.494;2023-04-25T20:09:39;3.08;;;1.00;;
47896;SDS011;39629;51.400;5.494;2023-04-25T20:14:41;5.55;;;1.10;;
47896;SDS011;39629;51.400;5.494;2023-04-25T20:19:44;4.43;;;1.20;;
47896;SDS011;39629;51.400;5.494;2023-04-25T20:24:46;2.85;;;1.20;;
47896;SDS011;39629;51.400;5.494;2023-04-25T20:29:48;4.40;;;1.20;;
47896;SDS011;39629;51.400;5.494;2023-04-25T20:34:50;2.72;;;1.10;;
47896;SDS011;39629;51.400;5.494;2023-04-25T20:39:53;4.93;;;1.33;;
47896;SDS011;39629;51.400;5.494;2023-04-25T20:44:54;2.30;;;1.00;;
47896;SDS011;39629;51.400;5.494;2023-04-25T20:49:56;6.40;;;1.73;;
47896;SDS011;39629;51.400;5.494;2023-04-25T20:54:59;3.83;;;1.30;;
47896;SDS011;39629;51.400;5.494;2023-04-25T21:00:01;2.97;;;1.48;;
47896;SDS011;39629;51.400;5.494;2023-04-25T21:05:16;2.85;;;1.15;;
47896;SDS011;39629;51.400;5.494;2023-04-25T21:10:19;5.28;;;1.63;;
47896;SDS011;39629;51.400;5.494;2023-04-25T21:15:21;4.40;;;1.30;;
47896;SDS011;39629;51.400;5.494;2023-04-25T21:20:23;8.57;;;1.75;;
47896;SDS011;39629;51.400;5.494;2023-04-25T21:25:26;5.13;;;1.60;;
47896;SDS011;39629;51.400;5.494;2023-04-25T21:30:30;5.40;;;1.67;;
47896;SDS011;39629;51.400;5.494;2023-04-25T21:35:31;2.92;;;1.42;;
47896;SDS011;39629;51.400;5.494;2023-04-25T21:40:34;3.65;;;1.60;;
47896;SDS011;39629;51.400;5.494;2023-04-25T21:45:37;7.03;;;1.70;;
47896;SDS011;39629;51.400;5.494;2023-04-25T21:50:39;4.10;;;1.70;;
47896;SDS011;39629;51.400;5.494;2023-04-25T21:55:42;7.13;;;1.35;;
47896;SDS011;39629;51.400;5.494;2023-04-25T22:00:44;6.63;;;1.70;;
47896;SDS011;39629;51.400;5.494;2023-04-25T22:05:45;7.03;;;1.60;;
47896;SDS011;39629;51.400;5.494;2023-04-25T22:10:48;6.47;;;1.63;;
47896;SDS011;39629;51.400;5.494;2023-04-25T22:15:50;6.30;;;1.65;;
47896;SDS011;39629;51.400;5.494;2023-04-25T22:20:53;5.32;;;1.98;;
47896;SDS011;39629;51.400;5.494;2023-04-25T22:25:55;6.82;;;1.90;;
47896;SDS011;39629;51.400;5.494;2023-04-25T22:30:57;10.25;;;1.80;;
47896;SDS011;39629;51.400;5.494;2023-04-25T22:35:59;8.15;;;2.03;;
47896;SDS011;39629;51.400;5.494;2023-04-25T22:41:02;7.25;;;1.92;;
47896;SDS011;39629;51.400;5.494;2023-04-25T22:46:04;6.47;;;2.13;;
47896;SDS011;39629;51.400;5.494;2023-04-25T22:51:06;5.43;;;2.00;;
47896;SDS011;39629;51.400;5.494;2023-04-25T22:56:08;7.47;;;1.60;;
47896;SDS011;39629;51.400;5.494;2023-04-25T23:01:10;7.65;;;1.98;;
47896;SDS011;39629;51.400;5.494;2023-04-25T23:06:12;6.88;;;1.70;;
47896;SDS011;39629;51.400;5.494;2023-04-25T23:11:15;4.43;;;1.88;;
47896;SDS011;39629;51.400;5.494;2023-04-25T23:16:16;3.67;;;1.67;;
47896;SDS011;39629;51.400;5.494;2023-04-25T23:21:18;3.65;;;1.85;;
47896;SDS011;39629;51.400;5.494;2023-04-25T23:26:21;5.93;;;1.92;;
47896;SDS011;39629;51.400;5.494;2023-04-25T23:31:23;4.15;;;1.77;;
47896;SDS011;39629;51.400;5.494;2023-04-25T23:36:25;5.32;;;1.88;;
47896;SDS011;39629;51.400;5.494;2023-04-25T23:41:28;6.10;;;2.20;;
47896;SDS011;39629;51.400;5.494;2023-04-25T23:46:30;5.70;;;2.00;;
47896;SDS011;39629;51.400;5.494;2023-04-25T23:51:31;5.78;;;1.58;;
47896;SDS011;39629;51.400;5.494;2023-04-25T23:56:34;5.30;;;2.00;;
